createdAt,value
2023-03-03T00:01:07.388Z,27.23
2023-03-03T00:03:35.739Z,34.70
2023-03-03T00:06:05.318Z,28.08
2023-03-03T00:08:33.791Z,23.60
2023-03-03T00:11:06.121Z,26.08
2023-03-03T00:13:38.907Z,22.08
2023-03-03T00:16:17.401Z,22.85
2023-03-03T00:18:47.395Z,26.45
2023-03-03T00:21:34.130Z,19.08
2023-03-03T00:24:23.735Z,23.33
2023-03-03T00:26:55.536Z,24.23
2023-03-03T00:29:36.104Z,27.33
2023-03-03T00:32:24.833Z,30.50
2023-03-03T00:34:55.155Z,30.00
2023-03-03T00:37:31.824Z,33.53
2023-03-03T00:40:21.715Z,34.63
2023-03-03T00:42:54.065Z,33.42
2023-03-03T00:45:36.377Z,33.83
2023-03-03T00:48:22.545Z,31.05
2023-03-03T00:50:51.740Z,28.67
2023-03-03T00:53:21.553Z,31.02
2023-03-03T00:55:51.073Z,28.98
2023-03-03T00:58:21.988Z,35.47
2023-03-03T01:00:52.265Z,31.60
2023-03-03T01:03:25.460Z,33.15
2023-03-03T01:05:54.447Z,32.72
2023-03-03T01:08:23.206Z,27.42
2023-03-03T01:10:53.004Z,30.85
2023-03-03T01:13:27.014Z,29.27
2023-03-03T01:15:55.529Z,27.48
2023-03-03T01:18:23.703Z,23.75
2023-03-03T01:20:52.782Z,27.83
2023-03-03T01:23:20.880Z,23.58
2023-03-03T01:25:49.119Z,30.08
2023-03-03T01:28:18.061Z,27.48
2023-03-03T01:30:48.157Z,26.88
2023-03-03T01:33:16.380Z,27.20
2023-03-03T01:35:47.245Z,26.15
2023-03-03T01:38:16.033Z,30.42
2023-03-03T01:40:44.150Z,29.77
2023-03-03T01:43:15.931Z,32.97
2023-03-03T01:46:17.340Z,33.03
2023-03-03T01:48:47.629Z,29.08
2023-03-03T01:51:23.769Z,34.00
2023-03-03T01:53:54.769Z,26.85
2023-03-03T01:56:23.559Z,28.63
2023-03-03T01:58:57.074Z,24.90
2023-03-03T02:01:28.188Z,27.52
2023-03-03T02:03:58.392Z,24.58
2023-03-03T02:06:32.011Z,27.88
2023-03-03T02:09:03.711Z,23.73
2023-03-03T02:11:34.030Z,27.77
2023-03-03T02:14:02.312Z,24.90
2023-03-03T02:16:30.701Z,28.15
2023-03-03T02:19:00.306Z,33.13
2023-03-03T02:21:29.612Z,28.30
2023-03-03T02:24:04.510Z,30.50
2023-03-03T02:26:37.900Z,40.22
2023-03-03T02:29:09.349Z,42.83
2023-03-03T02:31:39.883Z,83.70
2023-03-03T02:34:08.092Z,93.93
2023-03-03T02:36:39.162Z,86.60
2023-03-03T02:39:11.758Z,69.40
2023-03-03T02:41:46.265Z,46.78
2023-03-03T02:44:17.102Z,49.00
2023-03-03T02:46:47.816Z,42.38
2023-03-03T02:49:17.555Z,37.55
2023-03-03T02:51:45.994Z,30.00
2023-03-03T02:54:16.057Z,31.95
2023-03-03T02:56:45.867Z,27.40
2023-03-03T02:59:14.841Z,33.63
2023-03-03T03:01:47.915Z,26.30
2023-03-03T03:04:21.107Z,27.77
2023-03-03T03:06:51.792Z,31.23
2023-03-03T03:09:22.258Z,30.80
2023-03-03T03:11:54.038Z,28.30
2023-03-03T03:14:25.805Z,27.10
2023-03-03T03:16:55.780Z,32.45
2023-03-03T03:19:24.231Z,34.53
2023-03-03T03:21:52.850Z,31.52
2023-03-03T03:24:21.964Z,30.55
2023-03-03T03:26:58.022Z,32.22
2023-03-03T03:29:28.074Z,26.15
2023-03-03T03:31:57.044Z,27.27
2023-03-03T03:34:25.728Z,30.15
2023-03-03T03:36:55.502Z,30.70
2023-03-03T03:39:25.545Z,32.45
2023-03-03T03:41:54.713Z,28.88
2023-03-03T03:44:25.290Z,34.13
2023-03-03T03:46:53.884Z,32.00
2023-03-03T03:49:22.679Z,35.55
2023-03-03T03:51:52.874Z,29.02
2023-03-03T03:54:25.198Z,27.25
2023-03-03T03:56:54.599Z,29.15
2023-03-03T03:59:24.423Z,32.53
2023-03-03T04:01:53.141Z,31.75
2023-03-03T04:04:23.158Z,29.40
2023-03-03T04:06:51.951Z,32.67
2023-03-03T04:09:21.144Z,33.80
2023-03-03T04:11:50.099Z,31.50
2023-03-03T04:14:19.095Z,32.00
2023-03-03T04:16:49.004Z,33.88
2023-03-03T04:19:17.986Z,30.08
2023-03-03T04:21:46.448Z,37.47
2023-03-03T04:24:14.628Z,32.80
2023-03-03T04:26:43.049Z,30.92
2023-03-03T04:29:13.168Z,26.67
2023-03-03T04:31:44.071Z,25.27
2023-03-03T04:34:14.256Z,30.40
2023-03-03T04:36:43.182Z,35.10
2023-03-03T04:39:11.498Z,36.10
2023-03-03T04:41:40.244Z,30.25
2023-03-03T04:44:08.620Z,29.75
2023-03-03T04:46:36.930Z,33.22
2023-03-03T04:49:12.046Z,35.92
2023-03-03T04:51:42.746Z,35.15
2023-03-03T04:54:11.303Z,35.13
2023-03-03T04:56:39.556Z,36.55
2023-03-03T04:59:07.906Z,32.03
2023-03-03T05:01:36.367Z,29.70
2023-03-03T05:04:05.089Z,31.00
2023-03-03T05:06:33.315Z,33.33
2023-03-03T05:09:02.877Z,27.23
2023-03-03T05:11:32.565Z,33.53
2023-03-03T05:14:01.067Z,35.53
2023-03-03T05:16:29.539Z,33.35
2023-03-03T05:18:57.842Z,40.25
2023-03-03T05:21:26.081Z,35.13
2023-03-03T05:23:54.390Z,36.67
2023-03-03T05:26:26.818Z,31.50
2023-03-03T05:28:55.035Z,31.35
2023-03-03T05:31:23.639Z,30.00
2023-03-03T05:33:51.925Z,31.58
2023-03-03T05:36:20.236Z,30.75
2023-03-03T05:38:48.383Z,34.00
2023-03-03T05:41:16.815Z,27.95
2023-03-03T05:43:46.478Z,29.55
2023-03-03T05:46:14.798Z,30.40
2023-03-03T05:48:43.101Z,24.90
2023-03-03T05:51:11.732Z,30.15
2023-03-03T05:53:40.129Z,30.92
2023-03-03T05:56:08.766Z,29.50
2023-03-03T05:58:37.139Z,28.90
2023-03-03T06:01:06.817Z,50.60
2023-03-03T06:03:35.061Z,32.45
2023-03-03T06:06:03.587Z,32.22
2023-03-03T06:08:32.853Z,35.90
2023-03-03T06:11:00.940Z,63.30
2023-03-03T06:13:30.347Z,32.20
2023-03-03T06:15:58.633Z,35.33
2023-03-03T06:18:28.136Z,32.80
2023-03-03T06:20:56.740Z,44.65
2023-03-03T06:23:24.953Z,27.70
2023-03-03T06:25:53.872Z,30.10
2023-03-03T06:28:22.177Z,31.15
2023-03-03T06:30:50.368Z,30.58
2023-03-03T06:33:18.538Z,26.40
2023-03-03T06:35:50.951Z,30.42
2023-03-03T06:38:19.445Z,27.48
2023-03-03T06:40:48.455Z,30.40
2023-03-03T06:43:16.662Z,27.27
2023-03-03T06:45:46.842Z,26.77
2023-03-03T06:48:15.038Z,57.03
2023-03-03T06:50:43.256Z,33.42
2023-03-03T06:53:14.863Z,30.65
2023-03-03T06:55:45.101Z,23.08
2023-03-03T06:58:15.709Z,26.10
2023-03-03T07:00:45.765Z,26.02
2023-03-03T07:03:17.032Z,25.67
2023-03-03T07:05:46.059Z,22.33
2023-03-03T07:08:18.252Z,23.52
2023-03-03T07:10:47.597Z,24.00
2023-03-03T07:13:22.297Z,22.05
2023-03-03T07:15:51.899Z,21.77
2023-03-03T07:18:40.727Z,23.88
2023-03-03T07:21:17.910Z,24.35
2023-03-03T07:23:48.518Z,20.70
2023-03-03T07:26:19.343Z,25.85
2023-03-03T07:28:55.389Z,28.67
2023-03-03T07:31:36.793Z,34.40
2023-03-03T07:34:16.352Z,26.00
2023-03-03T07:36:44.877Z,26.02
2023-03-03T07:39:33.223Z,29.40
2023-03-03T07:42:15.309Z,24.25
2023-03-03T07:44:43.504Z,32.67
2023-03-03T07:47:21.059Z,30.58
2023-03-03T07:49:50.113Z,30.60
2023-03-03T07:52:26.268Z,25.75
2023-03-03T07:54:58.087Z,31.92
2023-03-03T07:57:28.209Z,30.35
2023-03-03T08:00:01.210Z,34.72
2023-03-03T08:02:45.354Z,28.30
2023-03-03T08:05:38.026Z,30.60
2023-03-03T08:08:20.399Z,29.83
2023-03-03T08:10:52.087Z,31.20
2023-03-03T08:13:21.979Z,34.35
2023-03-03T08:15:52.284Z,33.65
2023-03-03T08:18:28.262Z,37.95
2023-03-03T08:20:58.993Z,33.33
2023-03-03T08:23:27.292Z,33.90
2023-03-03T08:25:56.677Z,34.47
2023-03-03T08:28:24.749Z,33.47
2023-03-03T08:31:02.715Z,34.80
2023-03-03T08:33:37.291Z,29.10
2023-03-03T08:36:06.046Z,34.70
2023-03-03T08:38:34.493Z,32.85
2023-03-03T08:41:04.619Z,37.88
2023-03-03T08:43:33.128Z,37.13
2023-03-03T08:46:03.796Z,37.63
2023-03-03T08:48:32.107Z,37.00
2023-03-03T08:51:00.630Z,31.95
2023-03-03T08:53:29.255Z,35.42
2023-03-03T08:55:57.330Z,38.08
2023-03-03T08:58:35.020Z,35.40
2023-03-03T09:01:03.646Z,34.63
2023-03-03T09:03:31.799Z,37.97
2023-03-03T09:05:59.785Z,35.40
2023-03-03T09:08:27.833Z,33.45
2023-03-03T09:10:55.827Z,35.70
2023-03-03T09:13:23.860Z,35.70
2023-03-03T09:15:53.345Z,40.70
2023-03-03T09:18:23.444Z,37.75
2023-03-03T09:20:54.060Z,47.85
2023-03-03T09:23:34.970Z,35.92
2023-03-03T09:26:26.894Z,40.67
2023-03-03T09:28:56.648Z,39.38
2023-03-03T09:31:40.267Z,37.70
2023-03-03T09:34:20.689Z,40.63
2023-03-03T09:36:49.541Z,41.55
2023-03-03T09:39:20.373Z,40.28
2023-03-03T09:42:21.756Z,40.45
2023-03-03T09:45:04.162Z,42.38
2023-03-03T09:47:45.216Z,44.30
2023-03-03T09:50:23.170Z,44.47
2023-03-03T09:52:57.358Z,39.47
2023-03-03T09:55:40.607Z,41.05
2023-03-03T09:58:24.680Z,43.03
2023-03-03T10:01:00.707Z,42.95
2023-03-03T10:04:15.595Z,41.55
2023-03-03T10:06:49.943Z,46.17
2023-03-03T10:09:47.516Z,39.27
2023-03-03T10:12:22.572Z,40.50
2023-03-03T10:15:23.005Z,46.17
2023-03-03T10:17:53.266Z,41.20
2023-03-03T10:20:51.290Z,39.23
2023-03-03T10:23:25.156Z,38.33
2023-03-03T10:26:06.281Z,41.03
2023-03-03T10:28:54.765Z,41.00
2023-03-03T10:31:33.355Z,44.83
2023-03-03T10:34:12.005Z,42.57
2023-03-03T10:36:50.588Z,46.43
2023-03-03T10:39:41.488Z,40.43
2023-03-03T10:42:25.966Z,40.47
2023-03-03T10:45:30.495Z,46.57
2023-03-03T10:48:16.110Z,39.90
2023-03-03T10:50:54.758Z,43.40
2023-03-03T10:53:31.768Z,42.37
2023-03-03T10:56:16.164Z,39.23
2023-03-03T10:58:50.988Z,37.63
2023-03-03T11:01:27.788Z,38.83
2023-03-03T11:04:22.913Z,38.90
2023-03-03T11:06:56.193Z,40.03
2023-03-03T11:09:55.058Z,41.20
2023-03-03T11:12:35.428Z,40.77
2023-03-03T11:15:27.111Z,41.67
2023-03-03T11:18:12.108Z,41.23
2023-03-03T11:20:44.113Z,40.07
2023-03-03T11:23:40.356Z,42.83
2023-03-03T11:26:18.169Z,40.57
2023-03-03T11:28:56.394Z,39.80
2023-03-03T11:31:32.118Z,40.00
2023-03-03T11:34:08.273Z,42.83
2023-03-03T11:36:40.445Z,39.53
2023-03-03T11:39:11.793Z,39.20
2023-03-03T11:41:43.862Z,39.07
2023-03-03T11:44:23.002Z,45.23
2023-03-03T11:46:54.458Z,38.50
2023-03-03T11:49:30.042Z,39.80
2023-03-03T11:52:07.170Z,37.80
2023-03-03T11:54:45.182Z,53.33
2023-03-03T11:57:22.062Z,42.03
2023-03-03T12:00:02.942Z,40.80
2023-03-03T12:03:03.752Z,41.03
2023-03-03T12:05:41.853Z,47.07
2023-03-03T12:08:20.879Z,46.60
2023-03-03T12:10:59.196Z,44.53
2023-03-03T12:13:36.808Z,47.30
2023-03-03T12:16:12.197Z,41.63
2023-03-03T12:19:00.455Z,44.43
2023-03-03T12:21:40.496Z,43.37
2023-03-03T12:24:33.513Z,40.53
2023-03-03T12:27:15.642Z,42.87
2023-03-03T12:29:58.684Z,43.87
2023-03-03T12:32:42.573Z,40.37
2023-03-03T12:35:21.085Z,41.57
2023-03-03T12:37:55.681Z,40.20
2023-03-03T12:40:28.233Z,35.63
2023-03-03T12:43:20.883Z,37.73
2023-03-03T12:45:58.920Z,41.63
2023-03-03T12:48:33.496Z,37.80
2023-03-03T12:51:07.518Z,38.13
2023-03-03T12:53:47.435Z,35.63
2023-03-03T12:56:25.357Z,40.63
2023-03-03T12:59:01.699Z,43.73
2023-03-03T13:01:42.796Z,40.17
2023-03-03T13:04:18.295Z,33.50
2023-03-03T13:06:54.072Z,34.27
2023-03-03T13:09:31.687Z,38.77
2023-03-03T13:12:36.557Z,33.63
2023-03-03T13:15:16.321Z,33.00
2023-03-03T13:17:54.916Z,35.40
2023-03-03T13:20:30.707Z,36.20
2023-03-03T13:23:06.911Z,38.77
2023-03-03T13:25:48.895Z,40.67
2023-03-03T13:28:26.478Z,39.90
2023-03-03T13:30:59.416Z,35.60
2023-03-03T13:33:31.112Z,38.20
2023-03-03T13:36:03.028Z,37.10
2023-03-03T13:38:33.744Z,44.77
2023-03-03T13:41:08.125Z,37.33
2023-03-03T13:43:44.861Z,36.23
2023-03-03T13:46:18.075Z,35.63
2023-03-03T13:49:01.517Z,30.07
2023-03-03T13:51:42.150Z,30.93
2023-03-03T13:54:19.880Z,29.27
2023-03-03T13:57:15.274Z,26.93
2023-03-03T13:59:55.825Z,28.17
2023-03-03T14:02:47.904Z,27.87
2023-03-03T14:05:24.657Z,24.97
2023-03-03T14:07:59.823Z,23.57
2023-03-03T14:10:32.623Z,27.33
2023-03-03T14:13:06.145Z,29.63
2023-03-03T14:15:36.928Z,25.27
2023-03-03T14:18:22.265Z,27.87
2023-03-03T14:20:54.037Z,24.13
2023-03-03T14:23:28.548Z,20.70
2023-03-03T14:26:00.958Z,25.40
2023-03-03T14:28:30.983Z,25.70
2023-03-03T14:31:01.139Z,23.83
2023-03-03T14:33:32.443Z,30.10
2023-03-03T14:36:12.325Z,24.60
2023-03-03T14:38:51.695Z,26.93
2023-03-03T14:41:36.148Z,25.20
2023-03-03T14:44:26.346Z,24.70
2023-03-03T14:47:07.015Z,28.57
2023-03-03T14:49:37.878Z,31.13
2023-03-03T14:52:20.947Z,21.43
2023-03-03T14:54:51.733Z,27.53
2023-03-03T14:57:21.570Z,22.40
2023-03-03T15:00:03.311Z,24.83
2023-03-03T15:02:36.787Z,24.60
2023-03-03T15:05:23.830Z,23.93
2023-03-03T15:07:56.781Z,25.30
2023-03-03T15:10:30.758Z,23.90
2023-03-03T15:12:59.328Z,22.63
2023-03-03T15:15:29.033Z,22.00
2023-03-03T15:18:02.731Z,20.40
2023-03-03T15:20:43.291Z,23.20
2023-03-03T15:23:39.964Z,22.50
2023-03-03T15:26:13.242Z,19.27
2023-03-03T15:28:54.277Z,31.87
2023-03-03T15:31:36.260Z,21.63
2023-03-03T15:34:24.110Z,24.00
2023-03-03T15:36:57.340Z,23.37
2023-03-03T15:39:36.524Z,21.53
2023-03-03T15:42:09.312Z,22.37
2023-03-03T15:44:49.043Z,20.70
2023-03-03T15:47:35.716Z,25.70
2023-03-03T15:50:16.428Z,21.00
2023-03-03T15:53:00.945Z,21.43
2023-03-03T15:55:44.211Z,21.73
2023-03-03T15:58:43.885Z,20.00
2023-03-03T16:01:23.297Z,25.53
2023-03-03T16:03:57.047Z,26.43
2023-03-03T16:06:34.239Z,23.07
2023-03-03T16:09:07.976Z,20.43
2023-03-03T16:11:46.926Z,20.43
2023-03-03T16:14:48.492Z,20.80
2023-03-03T16:17:27.403Z,22.07
2023-03-03T16:20:09.077Z,20.50
2023-03-03T16:22:49.800Z,18.77
2023-03-03T16:25:38.212Z,22.00
2023-03-03T16:28:14.322Z,38.23
2023-03-03T16:30:51.218Z,19.37
2023-03-03T16:33:28.455Z,22.13
2023-03-03T16:36:04.542Z,18.33
2023-03-03T16:38:39.449Z,17.40
2023-03-03T16:41:13.774Z,18.00
2023-03-03T16:43:54.717Z,22.63
2023-03-03T16:46:32.919Z,21.33
2023-03-03T16:49:08.327Z,17.07
2023-03-03T16:51:44.793Z,21.20
2023-03-03T16:54:19.481Z,27.20
2023-03-03T16:56:53.458Z,27.27
2023-03-03T16:59:46.870Z,46.70
2023-03-03T17:02:54.321Z,27.93
2023-03-03T17:05:30.309Z,42.43
2023-03-03T17:08:11.757Z,28.57
2023-03-03T17:10:44.313Z,21.87
2023-03-03T17:13:23.945Z,32.53
2023-03-03T17:16:08.824Z,34.40
2023-03-03T17:18:47.576Z,34.60
2023-03-03T17:21:26.096Z,32.57
2023-03-03T17:24:05.376Z,32.33
2023-03-03T17:26:45.008Z,34.73
2023-03-03T17:29:29.340Z,45.77
2023-03-03T17:32:12.173Z,44.90
2023-03-03T17:34:50.849Z,42.87
2023-03-03T17:37:30.346Z,36.93
2023-03-03T17:40:14.788Z,30.30
2023-03-03T17:42:50.725Z,30.10
2023-03-03T17:45:20.627Z,24.37
2023-03-03T17:48:05.413Z,24.00
2023-03-03T17:50:53.754Z,26.00
2023-03-03T17:53:45.064Z,30.60
2023-03-03T17:56:19.995Z,28.37
2023-03-03T17:59:26.544Z,29.37
2023-03-03T18:02:18.918Z,30.60
2023-03-03T18:05:14.343Z,26.50
2023-03-03T18:07:55.054Z,26.60
2023-03-03T18:10:59.815Z,28.93
2023-03-03T18:14:02.507Z,35.27
2023-03-03T18:16:44.347Z,29.43
2023-03-03T18:19:48.998Z,30.67
2023-03-03T18:22:23.935Z,31.00
2023-03-03T18:24:59.841Z,31.67
2023-03-03T18:27:34.165Z,27.60
2023-03-03T18:30:26.307Z,28.13
2023-03-03T18:33:15.428Z,26.53
2023-03-03T18:35:44.983Z,27.90
2023-03-03T18:38:35.671Z,25.37
2023-03-03T18:41:06.398Z,22.57
2023-03-03T18:43:56.524Z,23.08
2023-03-03T18:46:51.413Z,22.03
2023-03-03T18:49:20.410Z,21.40
2023-03-03T18:52:07.964Z,21.70
2023-03-03T18:54:41.517Z,23.03
2023-03-03T18:57:19.228Z,22.50
2023-03-03T18:59:59.390Z,22.70
2023-03-03T19:02:46.336Z,20.27
2023-03-03T19:05:23.419Z,21.37
2023-03-03T19:07:57.679Z,22.30
2023-03-03T19:10:54.829Z,21.53
2023-03-03T19:14:13.071Z,23.60
2023-03-03T19:16:41.284Z,21.73
2023-03-03T19:19:15.749Z,21.27
2023-03-03T19:21:48.137Z,23.65
2023-03-03T19:24:34.817Z,22.73
2023-03-03T19:27:28.267Z,24.85
2023-03-03T19:30:20.879Z,26.58
2023-03-03T19:33:29.626Z,31.27
2023-03-03T19:36:12.194Z,25.90
2023-03-03T19:38:48.396Z,24.63
2023-03-03T19:41:26.384Z,30.25
2023-03-03T19:44:05.921Z,31.35
2023-03-03T19:46:50.050Z,28.38
2023-03-03T19:49:29.077Z,29.95
2023-03-03T19:52:05.080Z,29.13
2023-03-03T19:54:54.299Z,33.85
2023-03-03T19:57:35.587Z,28.17
2023-03-03T20:00:16.476Z,25.25
2023-03-03T20:02:57.795Z,30.20
2023-03-03T20:05:33.396Z,30.05
2023-03-03T20:08:07.384Z,27.52
2023-03-03T20:10:45.269Z,38.47
2023-03-03T20:13:45.371Z,32.42
2023-03-03T20:16:26.718Z,36.22
2023-03-03T20:19:22.136Z,30.00
2023-03-03T20:22:00.428Z,38.47
2023-03-03T20:24:48.247Z,36.20
2023-03-03T20:27:21.420Z,29.73
2023-03-03T20:30:15.821Z,33.97
2023-03-03T20:33:07.524Z,32.00
2023-03-03T20:35:45.118Z,29.15
2023-03-03T20:38:24.115Z,36.85
2023-03-03T20:40:58.810Z,33.30
2023-03-03T20:43:43.581Z,39.30
2023-03-03T20:46:22.311Z,38.65
2023-03-03T20:49:24.925Z,43.45
2023-03-03T20:52:00.437Z,34.75
2023-03-03T20:54:39.180Z,45.75
2023-03-03T20:57:15.916Z,51.55
2023-03-03T20:59:51.138Z,44.95
2023-03-03T21:02:27.274Z,41.60
2023-03-03T21:05:14.056Z,42.45
2023-03-03T21:07:53.530Z,39.85
2023-03-03T21:10:24.231Z,40.38
2023-03-03T21:12:54.039Z,40.97
2023-03-03T21:15:29.118Z,49.85
2023-03-03T21:17:58.970Z,45.38
2023-03-03T21:20:31.373Z,42.00
2023-03-03T21:23:01.154Z,49.53
2023-03-03T21:25:49.781Z,49.47
2023-03-03T21:28:20.546Z,41.85
2023-03-03T21:31:17.035Z,34.40
2023-03-03T21:33:53.975Z,35.13
2023-03-03T21:36:26.178Z,32.75
2023-03-03T21:38:55.309Z,37.05
2023-03-03T21:41:23.350Z,34.38
2023-03-03T21:43:53.471Z,32.53
2023-03-03T21:46:23.108Z,35.22
2023-03-03T21:48:51.879Z,30.90
2023-03-03T21:51:21.453Z,36.67
2023-03-03T21:53:51.118Z,43.92
2023-03-03T21:56:19.278Z,39.15
2023-03-03T21:58:47.376Z,42.92
2023-03-03T22:01:15.494Z,37.17
2023-03-03T22:03:45.672Z,40.55
2023-03-03T22:06:13.800Z,37.15
2023-03-03T22:08:41.923Z,35.45
2023-03-03T22:11:11.382Z,34.08
2023-03-03T22:13:41.238Z,30.23
2023-03-03T22:16:09.802Z,29.67
2023-03-03T22:18:38.108Z,32.88
2023-03-03T22:21:06.581Z,31.10
2023-03-03T22:23:34.720Z,32.90
2023-03-03T22:26:02.958Z,29.90
2023-03-03T22:28:32.698Z,33.40
2023-03-03T22:31:00.800Z,35.95
2023-03-03T22:33:28.943Z,31.20
2023-03-03T22:35:57.128Z,30.15
2023-03-03T22:38:25.865Z,45.70
2023-03-03T22:40:54.439Z,46.25
2023-03-03T22:43:23.007Z,55.55
2023-03-03T22:45:53.553Z,47.97
2023-03-03T22:48:23.316Z,57.50
2023-03-03T22:50:51.479Z,58.35
2023-03-03T22:53:20.175Z,53.47
2023-03-03T22:55:48.576Z,46.17
2023-03-03T22:58:20.104Z,46.75
2023-03-03T23:00:48.693Z,53.65
2023-03-03T23:03:18.201Z,52.38
2023-03-03T23:05:46.362Z,46.85
2023-03-03T23:08:16.241Z,37.38
2023-03-03T23:10:44.542Z,36.97
2023-03-03T23:13:12.925Z,41.05
2023-03-03T23:15:41.184Z,36.10
2023-03-03T23:18:09.465Z,38.53
2023-03-03T23:20:39.521Z,39.03
2023-03-03T23:23:07.685Z,35.13
2023-03-03T23:25:35.786Z,37.72
2023-03-03T23:28:04.008Z,35.42
2023-03-03T23:30:32.201Z,39.50
2023-03-03T23:33:00.336Z,37.75
2023-03-03T23:35:28.573Z,39.80
2023-03-03T23:37:58.034Z,41.47
2023-03-03T23:40:26.269Z,39.40
2023-03-03T23:42:54.403Z,40.20
2023-03-03T23:45:22.530Z,40.65
2023-03-03T23:47:50.767Z,42.03
2023-03-03T23:50:19.091Z,33.97
2023-03-03T23:52:47.304Z,39.10
2023-03-03T23:55:16.917Z,43.28
2023-03-03T23:57:45.146Z,43.25
